Time;durP1;ratioP1;P1;durP2;ratioP2;P2;SDS_P1;SDS_P2;PMS_P1;PMS_P2;Temp;Humidity;BMP_temperature;BMP_pressure;BME280_temperature;BME280_humidity;BME280_pressure;Samples;Min_cycle;Max_cycle;Signal;HPM_P1;HPM_P2
2021/04/07 00:01:38;;;;;;;10.70;5.47;;;1.30;1.00;;;;;;5092676;28;20171;-69
2021/04/07 00:04:04;;;;;;;10.00;5.83;;;1.40;49.80;;;;;;5093746;28;20195;-68
2021/04/07 00:06:34;;;;;;;10.73;5.45;;;1.30;1.00;;;;;;5094389;28;20171;-69
2021/04/07 00:09:00;;;;;;;9.98;6.25;;;1.40;49.10;;;;;;5094438;28;20289;-69
2021/04/07 00:11:26;;;;;;;10.93;5.32;;;1.30;1.00;;;;;;5094012;28;20632;-69
2021/04/07 00:13:51;;;;;;;10.17;6.20;;;1.20;1.00;;;;;;5093605;28;20264;-69
2021/04/07 00:16:17;;;;;;;12.03;5.33;;;1.30;1.00;;;;;;5093947;28;20220;-69
2021/04/07 00:18:42;;;;;;;8.80;5.40;;;1.20;97.40;;;;;;5093613;28;20474;-69
2021/04/07 00:21:08;;;;;;;7.97;4.00;;;1.40;99.90;;;;;;5093574;28;20174;-69
2021/04/07 00:23:34;;;;;;;10.90;5.47;;;1.20;44.50;;;;;;5093411;28;20203;-69
2021/04/07 00:25:59;;;;;;;9.95;5.78;;;1.10;38.60;;;;;;5093465;28;20199;-69
2021/04/07 00:28:25;;;;;;;14.73;6.47;;;1.30;99.90;;;;;;5093438;28;20248;-69
2021/04/07 00:30:50;;;;;;;10.70;4.73;;;1.20;1.00;;;;;;5093686;28;20232;-68
2021/04/07 00:33:17;;;;;;;11.80;5.00;;;1.10;1.00;;;;;;5093519;28;20210;-69
2021/04/07 00:35:43;;;;;;;8.65;5.03;;;1.10;99.90;;;;;;5093633;28;20179;-68
2021/04/07 00:38:10;;;;;;;13.98;5.45;;;1.10;1.00;;;;;;5094027;28;20167;-68
2021/04/07 00:40:36;;;;;;;7.90;5.03;;;1.00;1.00;;;;;;5091866;28;20214;-69
2021/04/07 00:43:03;;;;;;;10.90;5.27;;;1.20;1.00;;;;;;5093135;28;20635;-68
2021/04/07 00:45:29;;;;;;;8.55;6.00;;;1.30;1.00;;;;;;5093153;28;20540;-69
2021/04/07 00:47:55;;;;;;;12.40;5.57;;;1.20;1.00;;;;;;5093205;28;20168;-69
2021/04/07 00:50:23;;;;;;;9.73;7.38;;;1.20;1.00;;;;;;5093120;28;20164;-69
2021/04/07 00:52:49;;;;;;;14.65;7.05;;;1.10;1.00;;;;;;5093084;28;20187;-69
2021/04/07 00:55:18;;;;;;;13.03;5.93;;;1.20;1.00;;;;;;5093117;28;20167;-69
2021/04/07 00:57:44;;;;;;;13.13;5.45;;;1.20;1.00;;;;;;5093322;28;20750;-69
2021/04/07 01:00:12;;;;;;;14.90;6.10;;;1.10;1.00;;;;;;5093111;28;20662;-69
2021/04/07 01:02:39;;;;;;;15.60;6.57;;;1.10;1.00;;;;;;5093198;28;20684;-68
2021/04/07 01:05:06;;;;;;;12.48;6.18;;;1.20;1.00;;;;;;5091705;28;20239;-69
2021/04/07 01:07:32;;;;;;;9.35;5.45;;;1.20;1.00;;;;;;5092664;28;20554;-69
2021/04/07 01:09:57;;;;;;;11.10;6.33;;;1.20;1.00;;;;;;5093272;28;20167;-69
2021/04/07 01:12:23;;;;;;;15.90;6.80;;;1.10;1.00;;;;;;5093145;28;20671;-68
2021/04/07 01:14:49;;;;;;;13.47;6.27;;;1.40;1.00;;;;;;5092922;28;20240;-69
2021/04/07 01:17:15;;;;;;;10.60;5.10;;;1.60;99.90;;;;;;5093124;28;20410;-69
2021/04/07 01:19:42;;;;;;;9.55;5.22;;;1.20;99.90;;;;;;5092881;28;20205;-68
2021/04/07 01:22:08;;;;;;;16.75;6.28;;;1.20;99.90;;;;;;5092718;28;20307;-69
2021/04/07 01:24:35;;;;;;;7.63;5.57;;;1.10;99.90;;;;;;5093338;28;20163;-69
2021/04/07 01:27:01;;;;;;;8.60;4.72;;;1.30;1.00;;;;;;5092823;28;20947;-69
2021/04/07 01:29:26;;;;;;;9.40;5.63;;;1.20;1.00;;;;;;5092776;28;20168;-69
2021/04/07 01:31:54;;;;;;;10.00;5.60;;;1.30;1.00;;;;;;5093288;28;20167;-69
2021/04/07 01:34:24;;;;;;;6.07;4.65;;;1.50;1.00;;;;;;5092559;28;20454;-69
2021/04/07 01:36:50;;;;;;;9.30;4.70;;;1.50;99.90;;;;;;5092655;28;20251;-68
2021/04/07 01:39:16;;;;;;;12.02;5.93;;;1.30;99.90;;;;;;5092841;28;20171;-69
2021/04/07 01:41:42;;;;;;;7.72;4.65;;;1.30;99.90;;;;;;5092808;28;20226;-69
2021/04/07 01:44:08;;;;;;;8.88;4.65;;;1.30;99.90;;;;;;5092734;28;20304;-69
2021/04/07 01:46:34;;;;;;;10.07;4.30;;;1.40;99.90;;;;;;5092865;28;20193;-69
2021/04/07 01:49:00;;;;;;;9.55;3.95;;;1.20;99.90;;;;;;5092804;28;20368;-69
2021/04/07 01:51:27;;;;;;;9.20;4.83;;;1.20;99.90;;;;;;5092759;28;20262;-69
2021/04/07 01:54:04;;;;;;;9.65;5.05;;;1.10;1.00;;;;;;5095904;28;20487;-69
2021/04/07 01:56:29;;;;;;;9.32;4.75;;;1.30;1.00;;;;;;5096258;28;20171;-69
2021/04/07 01:59:06;;;;;;;9.07;5.27;;;1.30;99.90;;;;;;5096236;28;20220;-69
2021/04/07 02:01:36;;;;;;;11.13;4.57;;;1.40;99.90;;;;;;5096211;28;20164;-69
2021/04/07 02:04:03;;;;;;;11.05;4.50;;;1.60;99.90;;;;;;5095954;28;20213;-69
2021/04/07 02:06:28;;;;;;;8.65;5.15;;;1.60;99.90;;;;;;5096394;28;20159;-69
2021/04/07 02:08:54;;;;;;;6.47;4.40;;;1.50;99.90;;;;;;5095999;28;20171;-69
2021/04/07 02:11:19;;;;;;;9.10;4.47;;;1.50;99.90;;;;;;5096046;28;20159;-68
2021/04/07 02:13:45;;;;;;;6.33;4.23;;;1.30;99.90;;;;;;5096142;28;20199;-69
2021/04/07 02:16:12;;;;;;;10.00;4.40;;;1.40;99.90;;;;;;5095972;28;20312;-69
2021/04/07 02:18:38;;;;;;;7.10;3.65;;;1.60;99.90;;;;;;5095934;28;20174;-68
2021/04/07 02:21:04;;;;;;;9.23;3.92;;;1.50;99.90;;;;;;5096118;28;20175;-69
2021/04/07 02:23:30;;;;;;;11.53;3.73;;;1.40;99.90;;;;;;5095692;28;20201;-69
2021/04/07 02:25:56;;;;;;;7.85;3.65;;;1.40;99.90;;;;;;5096321;28;20748;-69
2021/04/07 02:28:23;;;;;;;7.27;3.53;;;1.40;99.90;;;;;;5095744;28;20163;-68
2021/04/07 02:30:48;;;;;;;6.45;3.97;;;1.20;99.90;;;;;;5095739;28;20246;-69
2021/04/07 02:33:14;;;;;;;7.07;3.40;;;1.20;99.90;;;;;;5094392;28;20222;-69
2021/04/07 02:35:39;;;;;;;17.70;4.47;;;1.30;99.90;;;;;;5095849;28;20254;-69
2021/04/07 02:38:08;;;;;;;9.57;3.13;;;1.30;99.90;;;;;;5095564;28;20218;-69
2021/04/07 02:40:34;;;;;;;12.18;3.65;;;1.30;99.90;;;;;;5095493;28;20551;-69
2021/04/07 02:42:59;;;;;;;5.80;4.57;;;1.20;99.90;;;;;;5095308;28;20196;-68
2021/04/07 02:45:25;;;;;;;6.10;3.33;;;1.30;99.90;;;;;;5095746;28;20426;-69
2021/04/07 02:47:51;;;;;;;11.90;4.50;;;1.20;99.90;;;;;;5095373;28;20178;-68
2021/04/07 02:50:16;;;;;;;15.37;4.87;;;1.30;99.90;;;;;;5095599;28;20631;-69
2021/04/07 02:52:42;;;;;;;11.17;3.37;;;1.50;99.90;;;;;;5095216;28;20252;-69
2021/04/07 02:55:08;;;;;;;9.13;3.70;;;1.20;99.90;;;;;;5095781;28;20239;-69
2021/04/07 02:57:33;;;;;;;10.07;4.03;;;1.40;99.90;;;;;;5095152;28;20174;-69
2021/04/07 02:59:59;;;;;;;5.07;3.53;;;1.30;99.90;;;;;;5095197;28;20164;-69
2021/04/07 03:02:24;;;;;;;8.30;3.33;;;1.30;99.90;;;;;;5095245;28;20209;-68
2021/04/07 03:04:50;;;;;;;13.70;4.07;;;1.20;99.90;;;;;;5096180;28;20517;-69
2021/04/07 03:07:15;;;;;;;7.87;3.83;;;1.40;99.90;;;;;;5094806;28;20183;-69
2021/04/07 03:09:41;;;;;;;4.37;3.27;;;1.50;99.90;;;;;;5094977;28;20156;-69
2021/04/07 03:12:07;;;;;;;7.43;3.03;;;1.60;99.90;;;;;;5095072;28;20175;-69
2021/04/07 03:14:32;;;;;;;6.20;4.05;;;1.40;99.90;;;;;;5094801;28;20216;-69
2021/04/07 03:16:58;;;;;;;7.67;4.07;;;1.60;99.90;;;;;;5094876;28;20171;-69
2021/04/07 03:19:23;;;;;;;7.77;3.70;;;1.70;99.90;;;;;;5094682;28;20167;-69
2021/04/07 03:21:49;;;;;;;6.93;4.50;;;1.40;99.90;;;;;;5094697;28;20171;-69
2021/04/07 03:24:14;;;;;;;7.60;4.93;;;1.40;99.90;;;;;;5095126;28;20654;-69
2021/04/07 03:26:40;;;;;;;8.57;5.47;;;1.40;99.90;;;;;;5094847;28;20170;-68
2021/04/07 03:29:05;;;;;;;10.00;4.50;;;1.60;99.90;;;;;;5094448;28;20176;-68
2021/04/07 03:31:31;;;;;;;12.57;4.73;;;1.20;99.90;;;;;;5094469;28;20163;-68
2021/04/07 03:33:57;;;;;;;9.50;5.40;;;1.20;99.90;;;;;;5094488;28;20407;-68
2021/04/07 03:36:22;;;;;;;9.70;5.73;;;1.20;1.00;;;;;;5094664;28;20163;-68
2021/04/07 03:38:48;;;;;;;7.50;4.53;;;1.10;1.00;;;;;;5094664;28;20171;-68
2021/04/07 03:41:13;;;;;;;9.37;6.53;;;1.20;1.00;;;;;;5094297;28;20549;-68
2021/04/07 03:43:39;;;;;;;8.27;5.87;;;1.30;91.70;;;;;;5094144;28;20199;-68
2021/04/07 03:46:04;;;;;;;11.90;6.17;;;1.30;42.90;;;;;;5094517;28;20172;-69
2021/04/07 03:48:31;;;;;;;8.77;5.43;;;1.30;1.00;;;;;;5094214;28;20717;-69
2021/04/07 03:50:58;;;;;;;19.17;6.78;;;1.50;1.00;;;;;;5094162;28;20203;-69
2021/04/07 03:53:24;;;;;;;8.88;5.35;;;1.40;1.00;;;;;;5094049;28;20187;-69
2021/04/07 03:55:53;;;;;;;19.58;8.02;;;1.50;1.00;;;;;;5094257;28;20175;-69
2021/04/07 03:58:19;;;;;;;15.13;6.57;;;1.40;99.90;;;;;;5092794;28;20191;-68
2021/04/07 04:00:46;;;;;;;10.02;7.25;;;1.20;1.00;;;;;;5093888;28;20179;-69
2021/04/07 04:03:11;;;;;;;18.92;8.07;;;1.20;99.90;;;;;;5093660;28;20196;-69
2021/04/07 04:05:37;;;;;;;19.43;7.67;;;1.40;99.90;;;;;;5093361;28;20182;-69
2021/04/07 04:08:04;;;;;;;14.85;7.40;;;1.40;1.00;;;;;;5093855;28;20187;-68
2021/04/07 04:10:29;;;;;;;12.43;7.13;;;1.30;1.00;;;;;;5093796;28;20175;-69
2021/04/07 04:12:55;;;;;;;15.07;8.20;;;1.10;28.00;;;;;;5093663;28;20187;-68
2021/04/07 04:15:21;;;;;;;14.43;9.90;;;1.10;1.00;;;;;;5093220;28;20178;-69
2021/04/07 04:17:47;;;;;;;14.03;8.70;;;1.20;1.00;;;;;;5093653;28;20633;-69
2021/04/07 04:20:13;;;;;;;14.53;8.73;;;1.10;1.00;;;;;;5094025;28;20411;-69
2021/04/07 04:22:39;;;;;;;10.77;7.97;;;1.00;1.00;;;;;;5094149;28;20617;-69
2021/04/07 04:25:06;;;;;;;17.27;9.37;;;1.10;94.50;;;;;;5092461;28;20168;-68
2021/04/07 04:27:32;;;;;;;12.80;7.38;;;1.20;90.40;;;;;;5093459;28;20413;-69
2021/04/07 04:29:58;;;;;;;14.37;8.40;;;1.10;1.00;;;;;;5093750;28;20167;-69
2021/04/07 04:32:24;;;;;;;10.40;8.17;;;1.10;99.90;;;;;;5093393;28;20421;-68
2021/04/07 04:34:49;;;;;;;10.97;8.90;;;1.40;1.00;;;;;;5093367;28;20178;-69
2021/04/07 04:37:15;;;;;;;11.83;8.63;;;1.60;1.00;;;;;;5093335;28;20662;-69
2021/04/07 04:39:40;;;;;;;14.23;9.30;;;1.40;1.00;;;;;;5093222;28;20175;-68
2021/04/07 04:42:06;;;;;;;8.47;7.53;;;1.20;99.90;;;;;;5092937;28;20179;-68
2021/04/07 04:44:31;;;;;;;11.67;7.90;;;1.30;1.00;;;;;;5093189;28;20169;-68
2021/04/07 04:46:57;;;;;;;11.30;7.17;;;1.50;99.90;;;;;;5093130;28;20410;-68
2021/04/07 04:49:22;;;;;;;14.10;7.67;;;1.40;99.90;;;;;;5093156;28;20208;-68
2021/04/07 04:51:48;;;;;;;8.87;7.00;;;1.40;99.90;;;;;;5093330;28;20203;-68
2021/04/07 04:54:14;;;;;;;4.85;3.50;;;1.40;99.90;;;;;;5093142;28;20187;-68
2021/04/07 04:56:41;;;;;;;9.07;5.68;;;1.30;99.90;;;;;;5092971;28;20510;-68
2021/04/07 04:59:07;;;;;;;11.90;6.88;;;1.30;1.00;;;;;;5093268;28;20659;-68
2021/04/07 05:01:33;;;;;;;8.88;6.55;;;1.30;99.90;;;;;;5092764;28;20159;-68
2021/04/07 05:04:01;;;;;;;10.13;6.33;;;1.20;1.00;;;;;;5092420;28;20560;-69
2021/04/07 05:06:26;;;;;;;21.63;6.75;;;1.30;99.90;;;;;;5091651;28;20653;-68
2021/04/07 05:08:52;;;;;;;7.57;6.13;;;1.40;5.90;;;;;;5093034;28;20184;-68
2021/04/07 05:11:17;;;;;;;8.67;5.90;;;1.20;1.00;;;;;;5092849;28;20175;-68
2021/04/07 05:13:43;;;;;;;13.40;7.10;;;1.30;99.90;;;;;;5091406;28;20188;-69
2021/04/07 05:16:08;;;;;;;12.47;8.10;;;1.30;1.00;;;;;;5092992;28;20171;-68
2021/04/07 05:18:34;;;;;;;16.70;8.60;;;1.50;99.90;;;;;;5092886;28;20556;-69
2021/04/07 05:20:59;;;;;;;11.93;7.10;;;1.70;1.00;;;;;;5092948;28;20171;-68
2021/04/07 05:23:26;;;;;;;11.43;7.27;;;1.40;99.90;;;;;;5092591;28;20203;-68
2021/04/07 05:25:52;;;;;;;11.27;6.95;;;1.60;99.90;;;;;;5092652;28;20433;-68
2021/04/07 05:28:17;;;;;;;9.50;6.95;;;1.40;99.90;;;;;;5095260;28;20178;-69
2021/04/07 05:31:01;;;;;;;13.80;6.47;;;1.50;55.10;;;;;;5096930;28;20163;-68
2021/04/07 05:33:36;;;;;;;10.10;7.72;;;1.40;1.00;;;;;;5096906;28;20245;-69
2021/04/07 05:36:04;;;;;;;11.00;7.43;;;1.40;1.00;;;;;;5096733;28;20163;-69
2021/04/07 05:38:30;;;;;;;10.35;6.95;;;1.70;99.90;;;;;;5096524;28;20171;-68
2021/04/07 05:40:58;;;;;;;13.30;8.13;;;1.40;99.90;;;;;;5096514;28;20578;-69
2021/04/07 05:43:24;;;;;;;11.13;7.03;;;1.50;99.90;;;;;;5096260;28;20995;-69
2021/04/07 05:45:50;;;;;;;12.65;7.30;;;1.60;1.00;;;;;;5096460;28;20175;-69
2021/04/07 05:48:16;;;;;;;11.33;7.53;;;1.80;1.00;;;;;;5096472;28;20632;-69
2021/04/07 05:50:49;;;;;;;9.90;6.10;;;1.60;1.00;;;;;;5096219;28;20405;-68
2021/04/07 05:53:15;;;;;;;8.57;7.10;;;1.40;99.90;;;;;;5096328;28;20187;-68
2021/04/07 05:55:52;;;;;;;15.30;8.70;;;1.60;99.90;;;;;;5096275;28;20167;-69
2021/04/07 05:58:18;;;;;;;7.55;6.25;;;1.60;1.00;;;;;;5096199;28;20469;-69
2021/04/07 06:00:44;;;;;;;12.77;9.48;;;1.60;1.00;;;;;;5096401;28;20171;-69
2021/04/07 06:03:11;;;;;;;8.23;7.20;;;1.60;99.90;;;;;;5095918;28;20274;-68
2021/04/07 06:05:41;;;;;;;8.38;6.97;;;1.60;1.00;;;;;;5096126;28;20213;-69
2021/04/07 06:08:08;;;;;;;11.85;7.35;;;1.70;67.10;;;;;;5096075;28;20585;-68
2021/04/07 06:10:36;;;;;;;8.10;6.00;;;1.80;1.00;;;;;;5096272;28;20171;-69
2021/04/07 06:13:02;;;;;;;10.55;6.47;;;1.80;1.00;;;;;;5096053;28;20219;-68
2021/04/07 06:15:29;;;;;;;8.18;6.10;;;1.90;1.00;;;;;;5095533;28;20171;-67
2021/04/07 06:17:57;;;;;;;7.88;6.32;;;1.60;1.00;;;;;;5095957;28;20179;-69
2021/04/07 06:20:25;;;;;;;6.82;5.75;;;1.40;99.90;;;;;;5095902;28;20167;-69
2021/04/07 06:22:52;;;;;;;11.52;6.82;;;1.60;99.90;;;;;;5096275;28;20203;-69
2021/04/07 06:25:18;;;;;;;7.10;5.10;;;1.70;1.00;;;;;;5095361;28;20656;-69
2021/04/07 06:27:58;;;;;;;7.63;6.13;;;1.60;1.00;;;;;;5095494;28;20309;-69
2021/04/07 06:30:40;;;;;;;8.82;5.10;;;1.70;99.90;;;;;;5095264;28;20389;-69
2021/04/07 06:33:14;;;;;;;7.28;5.68;;;1.70;1.00;;;;;;5095254;28;20211;-69
2021/04/07 06:35:42;;;;;;;9.85;5.70;;;1.70;99.90;;;;;;5095306;28;20163;-69
2021/04/07 06:38:08;;;;;;;6.82;4.32;;;1.50;99.90;;;;;;5095130;28;20175;-69
2021/04/07 06:40:34;;;;;;;8.97;5.77;;;1.60;1.00;;;;;;5096511;28;20172;-69
2021/04/07 06:43:01;;;;;;;11.52;7.00;;;1.60;1.00;;;;;;5095193;28;20207;-69
2021/04/07 06:45:28;;;;;;;11.45;7.25;;;1.50;99.90;;;;;;5095162;28;20766;-69
2021/04/07 06:47:54;;;;;;;15.63;7.38;;;1.60;1.00;;;;;;5095066;28;20250;-69
2021/04/07 06:50:24;;;;;;;9.45;6.65;;;1.30;99.90;;;;;;5095106;28;20179;-69
2021/04/07 06:52:51;;;;;;;10.90;7.43;;;1.40;1.00;;;;;;5095129;28;20631;-69
2021/04/07 06:55:17;;;;;;;9.35;5.90;;;1.70;1.00;;;;;;5095347;28;20536;-68
2021/04/07 06:57:44;;;;;;;11.93;6.55;;;1.70;99.90;;;;;;5095511;28;20168;-69
2021/04/07 07:00:12;;;;;;;11.50;7.97;;;1.50;99.90;;;;;;5094850;28;20168;-68
2021/04/07 07:02:37;;;;;;;6.75;5.55;;;1.50;1.00;;;;;;5094918;28;20211;-69
2021/04/07 07:05:04;;;;;;;7.30;6.20;;;1.40;99.90;;;;;;5095030;28;20520;-69
2021/04/07 07:07:30;;;;;;;15.88;7.88;;;1.40;99.90;;;;;;5094310;28;20262;-69
2021/04/07 07:09:56;;;;;;;13.87;8.00;;;1.60;99.90;;;;;;5096313;28;20203;-69
2021/04/07 07:12:22;;;;;;;8.07;6.73;;;1.50;99.90;;;;;;5096147;28;20478;-69
2021/04/07 07:14:49;;;;;;;14.95;5.95;;;1.60;99.90;;;;;;5095208;28;20765;-68
2021/04/07 07:17:34;;;;;;;12.93;6.40;;;1.60;1.00;;;;;;5094857;28;20531;-69
2021/04/07 07:20:01;;;;;;;10.80;5.82;;;1.50;99.90;;;;;;5094614;28;20156;-68
2021/04/07 07:22:28;;;;;;;6.93;3.78;;;1.70;1.00;;;;;;5094444;28;20723;-68
2021/04/07 07:25:00;;;;;;;7.28;5.00;;;1.40;99.90;;;;;;5094519;28;20178;-68
2021/04/07 07:27:39;;;;;;;12.32;5.63;;;1.70;99.90;;;;;;5094655;28;20156;-69
2021/04/07 07:30:09;;;;;;;16.60;5.35;;;1.80;99.90;;;;;;5094337;28;20148;-69
2021/04/07 07:32:37;;;;;;;8.02;3.50;;;1.80;1.00;;;;;;5094399;28;20204;-68
2021/04/07 07:35:15;;;;;;;8.95;4.55;;;1.50;1.00;;;;;;5094252;28;20168;-69
2021/04/07 07:37:42;;;;;;;7.63;4.35;;;1.70;99.90;;;;;;5094653;28;20178;-69
2021/04/07 07:40:14;;;;;;;5.53;4.35;;;1.70;99.90;;;;;;5094129;28;20256;-69
2021/04/07 07:42:40;;;;;;;5.07;4.35;;;1.90;99.90;;;;;;5094120;28;20214;-68
2021/04/07 07:45:07;;;;;;;4.20;3.80;;;1.80;99.90;;;;;;5094318;28;20305;-68
2021/04/07 07:47:39;;;;;;;6.22;4.35;;;1.60;78.80;;;;;;5094037;28;20160;-68
2021/04/07 07:50:07;;;;;;;6.55;3.75;;;1.80;87.20;;;;;;5093035;28;20148;-68
2021/04/07 07:52:35;;;;;;;8.95;3.85;;;1.80;99.90;;;;;;5093804;28;20686;-69
2021/04/07 07:55:15;;;;;;;7.22;3.90;;;1.80;99.90;;;;;;5094126;28;20207;-69
2021/04/07 07:57:54;;;;;;;4.15;2.20;;;1.80;99.90;;;;;;5092704;28;20625;-69
2021/04/07 08:00:20;;;;;;;5.30;2.17;;;1.60;1.00;;;;;;5093831;28;20163;-69
2021/04/07 08:02:46;;;;;;;9.97;4.53;;;1.40;99.90;;;;;;5093601;28;20206;-69
2021/04/07 08:05:19;;;;;;;7.47;4.00;;;1.60;99.90;;;;;;5093724;28;20168;-69
2021/04/07 08:07:45;;;;;;;8.85;4.22;;;1.70;1.00;;;;;;5093269;28;20179;-69
2021/04/07 08:10:13;;;;;;;6.18;3.30;;;1.80;99.90;;;;;;5093700;28;20163;-68
2021/04/07 08:12:41;;;;;;;2.90;2.55;;;1.60;1.00;;;;;;5093603;28;20187;-68
2021/04/07 08:15:09;;;;;;;5.80;4.63;;;1.50;99.90;;;;;;5093331;28;20176;-68
2021/04/07 08:17:36;;;;;;;7.95;3.42;;;1.50;1.00;;;;;;5091900;28;20167;-69
2021/04/07 08:20:03;;;;;;;5.15;2.72;;;1.50;8.20;;;;;;5093020;28;20235;-69
2021/04/07 08:22:29;;;;;;;4.00;2.45;;;1.40;99.90;;;;;;5093236;28;20211;-69
2021/04/07 08:25:00;;;;;;;5.65;3.30;;;1.60;62.90;;;;;;5093195;28;20246;-69
2021/04/07 08:27:26;;;;;;;8.20;3.00;;;1.70;1.00;;;;;;5093179;28;20172;-68
2021/04/07 08:29:52;;;;;;;4.93;2.97;;;1.50;1.00;;;;;;5092933;28;20195;-67
2021/04/07 08:32:21;;;;;;;4.97;2.73;;;1.70;1.00;;;;;;5092939;28;20175;-68
2021/04/07 08:34:48;;;;;;;5.88;3.20;;;1.80;84.20;;;;;;5092602;28;20481;-70
2021/04/07 08:37:23;;;;;;;5.15;3.15;;;1.60;1.00;;;;;;5091968;28;20185;-68
2021/04/07 08:39:49;;;;;;;5.93;2.97;;;1.60;1.00;;;;;;5092869;28;20160;-68
2021/04/07 08:42:15;;;;;;;6.53;3.90;;;1.60;1.00;;;;;;5092760;28;20575;-68
2021/04/07 08:44:49;;;;;;;5.13;3.53;;;1.90;94.90;;;;;;5092892;28;20164;-69
2021/04/07 08:47:28;;;;;;;4.10;3.35;;;1.70;99.90;;;;;;5092898;28;20910;-68
2021/04/07 08:50:20;;;;;;;7.53;3.38;;;2.10;99.90;;;;;;5092707;28;20152;-68
2021/04/07 08:52:50;;;;;;;5.72;3.20;;;2.00;99.90;;;;;;5086874;28;20202;-69
2021/04/07 08:55:26;;;;;;;3.17;2.15;;;1.70;99.90;;;;;;5092544;28;20171;-69
2021/04/07 08:58:06;;;;;;;5.93;3.38;;;1.60;1.00;;;;;;5092591;28;20177;-69
2021/04/07 09:00:34;;;;;;;5.80;3.60;;;1.80;1.00;;;;;;5093202;28;20602;-69
2021/04/07 09:03:12;;;;;;;5.07;3.30;;;1.80;1.00;;;;;;5093118;28;20199;-68
2021/04/07 09:05:45;;;;;;;5.65;3.28;;;1.70;1.00;;;;;;5092486;28;20525;-70
2021/04/07 09:08:21;;;;;;;2.78;2.58;;;1.80;99.90;;;;;;5093005;28;20175;-70
2021/04/07 09:10:53;;;;;;;4.35;3.72;;;1.50;1.00;;;;;;5092478;28;20208;-69
2021/04/07 09:13:37;;;;;;;3.35;2.90;;;1.90;99.90;;;;;;5092686;28;20195;-68
2021/04/07 09:16:05;;;;;;;3.67;2.78;;;1.90;21.30;;;;;;5093139;28;20179;-69
2021/04/07 09:18:40;;;;;;;3.28;2.97;;;1.70;99.90;;;;;;5092910;28;20354;-69
2021/04/07 09:21:15;;;;;;;5.28;3.85;;;1.70;99.90;;;;;;5092148;28;20190;-69
2021/04/07 09:23:43;;;;;;;4.93;3.00;;;1.70;99.90;;;;;;5092255;28;20440;-69
2021/04/07 09:26:11;;;;;;;6.70;4.63;;;1.80;99.90;;;;;;5092200;28;20163;-69
2021/04/07 09:28:41;;;;;;;6.45;4.03;;;1.90;99.90;;;;;;5092972;28;20172;-69
2021/04/07 09:31:19;;;;;;;5.97;4.30;;;1.90;1.00;;;;;;5092291;28;20220;-69
2021/04/07 09:33:49;;;;;;;6.85;4.90;;;1.90;1.00;;;;;;5092155;28;20690;-69
2021/04/07 09:36:17;;;;;;;6.05;4.55;;;2.10;1.00;;;;;;5092419;28;20640;-68
2021/04/07 09:38:47;;;;;;;6.57;3.60;;;1.90;94.90;;;;;;5092540;28;20171;-70
2021/04/07 09:41:28;;;;;;;4.72;4.32;;;2.10;1.00;;;;;;5091996;28;20636;-68
2021/04/07 09:43:55;;;;;;;6.07;4.15;;;2.00;1.00;;;;;;5092508;28;20256;-68
2021/04/07 09:46:21;;;;;;;5.15;4.65;;;2.10;1.00;;;;;;5092246;28;20164;-69
2021/04/07 09:48:51;;;;;;;4.40;3.97;;;2.00;99.90;;;;;;5092143;28;20573;-69
2021/04/07 09:51:24;;;;;;;4.60;4.20;;;2.10;99.90;;;;;;5092255;28;20637;-67
2021/04/07 09:53:51;;;;;;;6.68;5.55;;;2.20;1.00;;;;;;5091655;28;20274;-68
2021/04/07 09:56:17;;;;;;;6.93;5.70;;;2.40;27.00;;;;;;5090282;28;20183;-69
2021/04/07 09:58:52;;;;;;;6.30;5.40;;;2.30;99.90;;;;;;5092263;28;20167;-69
2021/04/07 10:01:19;;;;;;;6.50;5.75;;;2.00;1.00;;;;;;5092087;28;20195;-69
2021/04/07 10:03:55;;;;;;;7.15;5.30;;;2.20;1.00;;;;;;5090466;28;20224;-69
2021/04/07 10:06:23;;;;;;;7.45;6.18;;;2.20;99.90;;;;;;5092093;28;20506;-68
2021/04/07 10:09:06;;;;;;;7.65;6.57;;;2.10;1.00;;;;;;5091983;28;20575;-68
2021/04/07 10:11:39;;;;;;;5.43;5.00;;;2.30;1.00;;;;;;5092244;28;20175;-69
2021/04/07 10:14:06;;;;;;;7.50;5.07;;;2.00;17.70;;;;;;5093976;28;20191;-69
2021/04/07 10:16:41;;;;;;;6.80;6.18;;;1.80;28.20;;;;;;5095935;28;20250;-69
2021/04/07 10:19:08;;;;;;;7.10;6.18;;;2.20;99.90;;;;;;5095728;28;20627;-69
2021/04/07 10:21:34;;;;;;;7.68;6.35;;;2.50;99.90;;;;;;5095775;28;20224;-70
2021/04/07 10:24:00;;;;;;;5.70;5.20;;;2.40;1.00;;;;;;5095225;28;20214;-69
2021/04/07 10:26:26;;;;;;;6.90;6.30;;;2.10;1.00;;;;;;5095369;28;20160;-70
2021/04/07 10:28:57;;;;;;;7.33;6.63;;;2.40;99.90;;;;;;5094180;28;20186;-69
2021/04/07 10:31:22;;;;;;;7.38;6.75;;;2.30;30.40;;;;;;5093566;28;20467;-69
2021/04/07 10:33:48;;;;;;;8.30;5.10;;;2.10;1.00;;;;;;5093384;28;20351;-69
2021/04/07 10:36:14;;;;;;;6.30;5.70;;;2.30;1.00;;;;;;5095558;28;20163;-69
2021/04/07 10:38:39;;;;;;;8.80;6.30;;;2.10;1.00;;;;;;5095154;28;20221;-69
2021/04/07 10:41:06;;;;;;;8.00;7.33;;;2.30;99.90;;;;;;5095224;28;20242;-69
2021/04/07 10:43:34;;;;;;;6.18;5.68;;;2.50;99.90;;;;;;5094932;28;20198;-69
2021/04/07 10:46:05;;;;;;;6.97;6.13;;;2.30;1.00;;;;;;5095017;28;20536;-69
2021/04/07 10:48:32;;;;;;;6.20;5.60;;;2.40;99.90;;;;;;5095003;28;20171;-69
2021/04/07 10:50:58;;;;;;;9.02;5.32;;;2.40;1.00;;;;;;5094822;28;20247;-69
2021/04/07 10:53:41;;;;;;;5.78;5.28;;;2.70;26.80;;;;;;5094533;28;20199;-69
2021/04/07 10:56:15;;;;;;;5.75;5.25;;;2.70;1.00;;;;;;5094457;28;20515;-68
2021/04/07 10:58:42;;;;;;;7.05;5.80;;;2.50;99.90;;;;;;5094762;28;20536;-68
2021/04/07 11:01:08;;;;;;;5.65;5.05;;;2.50;86.90;;;;;;5094780;28;20250;-69
2021/04/07 11:03:33;;;;;;;6.73;6.10;;;2.40;99.90;;;;;;5094667;28;20285;-69
2021/04/07 11:06:00;;;;;;;5.47;4.50;;;2.60;99.90;;;;;;5094501;28;20164;-69
2021/04/07 11:08:35;;;;;;;6.65;5.95;;;2.50;99.90;;;;;;5094769;28;20473;-68
2021/04/07 11:11:02;;;;;;;5.45;4.63;;;2.60;1.00;;;;;;5094571;28;20203;-69
2021/04/07 11:13:28;;;;;;;5.13;4.63;;;2.90;1.00;;;;;;5094527;28;20190;-69
2021/04/07 11:15:54;;;;;;;4.55;4.15;;;2.80;99.90;;;;;;5093446;28;20240;-69
2021/04/07 11:18:29;;;;;;;5.50;4.97;;;2.60;1.00;;;;;;5094622;28;20167;-69
2021/04/07 11:20:55;;;;;;;7.32;6.65;;;2.60;1.00;;;;;;5094540;28;20357;-68
2021/04/07 11:23:20;;;;;;;9.30;6.23;;;2.70;1.00;;;;;;5094153;28;20294;-68
2021/04/07 11:25:48;;;;;;;7.33;5.03;;;2.70;1.00;;;;;;5093144;28;20199;-69
2021/04/07 11:28:18;;;;;;;7.05;4.97;;;2.80;1.00;;;;;;5093882;28;20227;-69
2021/04/07 11:30:57;;;;;;;9.50;5.13;;;3.00;1.00;;;;;;5094089;28;20204;-68
2021/04/07 11:33:27;;;;;;;5.93;5.28;;;2.70;99.90;;;;;;5094552;28;20191;-69
2021/04/07 11:36:19;;;;;;;6.93;5.07;;;2.50;1.00;;;;;;5094414;28;20171;-69
2021/04/07 11:38:50;;;;;;;8.18;5.72;;;2.50;1.00;;;;;;5093873;28;20151;-68
2021/04/07 11:46:30;;;;;;;9.55;6.63;;;2.80;1.00;;;;;;5094323;28;20163;-69
2021/04/07 11:48:56;;;;;;;14.38;7.40;;;3.10;1.00;;;;;;5093898;28;20652;-68
2021/04/07 11:51:21;;;;;;;12.43;7.13;;;3.30;5.80;;;;;;5094006;28;20167;-69
2021/04/07 11:53:48;;;;;;;8.63;6.20;;;3.50;1.00;;;;;;5093654;28;20785;-69
2021/04/07 11:56:14;;;;;;;29.25;7.00;;;3.70;1.00;;;;;;5093883;28;20253;-69
2021/04/07 11:58:40;;;;;;;16.65;6.97;;;3.50;1.00;;;;;;5093603;28;20636;-68
2021/04/07 12:01:05;;;;;;;11.30;6.17;;;3.60;1.00;;;;;;5093487;28;20167;-68
2021/04/07 12:03:32;;;;;;;13.97;6.90;;;3.70;1.00;;;;;;5093250;28;20203;-68
2021/04/07 12:05:58;;;;;;;19.25;7.57;;;3.90;1.00;;;;;;5093732;28;20221;-68
2021/04/07 12:08:24;;;;;;;11.77;6.17;;;4.00;99.90;;;;;;5093355;28;20175;-68
2021/04/07 12:10:49;;;;;;;7.23;5.63;;;4.10;99.90;;;;;;5093659;28;20765;-68
2021/04/07 12:13:15;;;;;;;9.37;6.07;;;4.20;99.90;;;;;;5093551;28;20290;-69
2021/04/07 12:15:41;;;;;;;14.83;6.43;;;4.10;99.90;;;;;;5093674;28;20198;-69
2021/04/07 12:18:07;;;;;;;11.93;7.10;;;4.30;99.90;;;;;;5093344;28;20176;-69
2021/04/07 12:20:34;;;;;;;8.43;7.57;;;4.40;99.90;;;;;;5093352;28;20406;-69
2021/04/07 12:23:01;;;;;;;7.75;5.70;;;4.10;99.90;;;;;;5093403;28;20195;-70
2021/04/07 12:25:27;;;;;;;14.15;8.60;;;4.10;96.90;;;;;;5093438;28;20159;-69
2021/04/07 12:27:52;;;;;;;18.83;7.93;;;4.10;1.00;;;;;;5093268;28;20502;-69
2021/04/07 12:30:20;;;;;;;12.20;5.47;;;4.10;1.00;;;;;;5092717;28;20174;-69
2021/04/07 12:32:46;;;;;;;7.15;3.90;;;4.10;99.90;;;;;;5093121;28;20191;-70
2021/04/07 12:35:13;;;;;;;8.63;4.40;;;3.90;48.10;;;;;;5093542;28;20177;-69
2021/04/07 12:37:42;;;;;;;10.50;5.20;;;3.90;99.90;;;;;;5092668;28;20174;-70
2021/04/07 12:40:08;;;;;;;12.48;6.13;;;4.00;99.90;;;;;;5093087;28;20246;-70
2021/04/07 12:42:33;;;;;;;13.80;6.43;;;4.00;99.90;;;;;;5092908;28;20187;-70
2021/04/07 12:44:59;;;;;;;11.57;6.40;;;4.20;99.90;;;;;;5093187;28;20220;-70
2021/04/07 12:47:25;;;;;;;10.83;5.43;;;4.10;99.90;;;;;;5093071;28;20164;-70
2021/04/07 12:49:51;;;;;;;11.93;5.30;;;4.20;99.90;;;;;;5092913;28;20172;-69
2021/04/07 12:52:16;;;;;;;11.17;5.07;;;4.20;99.90;;;;;;5092777;28;20163;-70
2021/04/07 12:54:42;;;;;;;11.30;5.43;;;4.30;99.90;;;;;;5092876;28;20171;-68
2021/04/07 12:57:08;;;;;;;10.40;5.50;;;4.20;99.90;;;;;;5093052;28;20262;-70
2021/04/07 12:59:34;;;;;;;11.80;6.13;;;4.30;1.00;;;;;;5093298;28;20778;-68
2021/04/07 13:01:59;;;;;;;15.63;6.63;;;4.40;1.00;;;;;;5092970;28;20168;-69
2021/04/07 13:04:25;;;;;;;14.50;5.60;;;4.50;99.90;;;;;;5092525;28;20712;-69
2021/04/07 13:06:51;;;;;;;13.53;6.50;;;4.30;99.90;;;;;;5092909;28;20168;-68